createdAt,value
2022-10-19T00:01:03.504Z,102085.66
2022-10-19T00:03:31.940Z,102086.72
2022-10-19T00:06:00.587Z,102077.50
2022-10-19T00:08:28.639Z,102066.13
2022-10-19T00:10:57.995Z,102076.34
2022-10-19T00:13:25.955Z,102078.22
2022-10-19T00:15:53.859Z,102082.75
2022-10-19T00:18:30.083Z,102086.97
2022-10-19T00:21:04.703Z,102065.91
2022-10-19T00:23:32.784Z,102088.00
2022-10-19T00:26:02.785Z,102090.59
2022-10-19T00:28:31.313Z,102078.25
2022-10-19T00:31:04.336Z,102089.91
2022-10-19T00:33:32.215Z,102085.75
2022-10-19T00:36:00.341Z,102082.19
2022-10-19T00:38:28.449Z,102085.09
2022-10-19T00:40:56.402Z,102077.34
2022-10-19T00:43:27.916Z,102080.38
2022-10-19T00:45:55.845Z,102082.28
2022-10-19T00:48:26.787Z,102075.97
2022-10-19T00:50:56.932Z,102079.50
2022-10-19T00:53:28.189Z,102079.78
2022-10-19T00:55:58.349Z,102071.84
2022-10-19T00:58:28.487Z,102081.75
2022-10-19T01:00:56.584Z,102088.06
2022-10-19T01:03:24.531Z,102084.41
2022-10-19T01:05:52.599Z,102080.72
2022-10-19T01:08:21.259Z,102077.47
2022-10-19T01:10:55.289Z,102091.75
2022-10-19T01:13:43.004Z,102081.41
2022-10-19T01:16:18.087Z,102080.56
2022-10-19T01:18:51.679Z,102084.28
2022-10-19T01:21:28.726Z,102092.47
2022-10-19T01:24:30.691Z,102078.34
2022-10-19T01:27:36.361Z,102075.75
2022-10-19T01:30:12.474Z,102075.00
2022-10-19T01:33:05.432Z,102075.09
2022-10-19T01:35:39.857Z,102075.47
2022-10-19T01:38:22.189Z,102079.78
2022-10-19T01:40:58.044Z,102080.94
2022-10-19T01:43:38.599Z,102084.69
2022-10-19T01:46:14.463Z,102081.16
2022-10-19T01:48:51.881Z,102081.38
2022-10-19T01:51:24.199Z,102086.72
2022-10-19T01:53:55.847Z,102085.03
2022-10-19T01:56:27.507Z,102088.50
2022-10-19T01:58:57.727Z,102082.94
2022-10-19T02:01:31.589Z,102080.81
2022-10-19T02:04:01.085Z,102081.53
2022-10-19T02:06:29.809Z,102088.41
2022-10-19T02:08:58.057Z,102090.88
2022-10-19T02:11:26.551Z,102093.53
2022-10-19T02:14:01.880Z,102101.22
2022-10-19T02:16:36.014Z,102095.75
2022-10-19T02:19:08.444Z,102093.00
2022-10-19T02:21:36.678Z,102087.50
2022-10-19T02:24:04.969Z,102083.94
2022-10-19T02:26:33.438Z,102091.00
2022-10-19T02:29:01.558Z,102086.41
2022-10-19T02:31:29.554Z,102086.44
2022-10-19T02:33:58.900Z,102083.66
2022-10-19T02:36:26.998Z,102087.97
2022-10-19T02:38:55.184Z,102081.00
2022-10-19T02:41:28.691Z,102075.50
2022-10-19T02:44:02.498Z,102078.13
2022-10-19T02:46:37.480Z,102091.38
2022-10-19T02:49:09.160Z,102084.25
2022-10-19T02:51:38.648Z,102084.09
2022-10-19T02:54:07.985Z,102064.91
2022-10-19T02:56:36.751Z,102091.28
2022-10-19T02:59:05.413Z,102091.13
2022-10-19T03:01:33.312Z,102091.88
2022-10-19T03:04:01.248Z,102091.91
2022-10-19T03:06:30.517Z,102078.78
2022-10-19T03:08:58.466Z,102099.78
2022-10-19T03:11:27.089Z,102085.66
2022-10-19T03:13:55.010Z,102099.63
2022-10-19T03:16:22.910Z,102086.34
2022-10-19T03:18:51.110Z,102096.81
2022-10-19T03:21:20.299Z,102088.78
2022-10-19T03:23:49.666Z,102096.81
2022-10-19T03:26:18.533Z,102085.38
2022-10-19T03:28:46.507Z,102093.97
2022-10-19T03:31:14.444Z,102060.69
2022-10-19T03:33:42.323Z,102090.38
2022-10-19T03:36:18.477Z,102090.41
2022-10-19T03:38:46.423Z,102093.94
2022-10-19T03:41:15.898Z,102096.63
2022-10-19T03:43:43.900Z,102091.09
2022-10-19T03:46:11.813Z,102091.16
2022-10-19T03:48:39.730Z,102087.63
2022-10-19T03:51:10.643Z,102100.00
2022-10-19T03:53:39.061Z,102100.88
2022-10-19T03:56:09.272Z,102091.31
2022-10-19T03:58:40.155Z,102102.66
2022-10-19T04:01:10.046Z,102100.16
2022-10-19T04:03:38.201Z,102103.69
2022-10-19T04:06:08.764Z,102110.72
2022-10-19T04:08:37.428Z,102106.25
2022-10-19T04:11:10.138Z,102108.00
2022-10-19T04:13:39.941Z,102113.31
2022-10-19T04:16:08.610Z,102108.94
2022-10-19T04:18:36.463Z,102114.28
2022-10-19T04:21:06.122Z,102109.75
2022-10-19T04:23:36.494Z,102099.00
2022-10-19T04:26:06.713Z,102100.69
2022-10-19T04:28:35.728Z,102106.03
2022-10-19T04:31:06.564Z,102092.88
2022-10-19T04:33:35.425Z,102102.56
2022-10-19T04:36:06.667Z,102107.81
2022-10-19T04:38:35.200Z,102106.94
2022-10-19T04:41:04.143Z,102092.94
2022-10-19T04:43:32.029Z,102109.66
2022-10-19T04:46:05.181Z,102118.47
2022-10-19T04:48:33.212Z,102116.63
2022-10-19T04:51:01.162Z,102118.56
2022-10-19T04:53:29.088Z,102121.97
2022-10-19T04:55:57.169Z,102094.72
2022-10-19T04:58:25.375Z,102112.28
2022-10-19T05:00:53.326Z,102121.22
2022-10-19T05:03:22.564Z,102121.19
2022-10-19T05:05:50.552Z,102122.09
2022-10-19T05:08:18.706Z,102115.00
2022-10-19T05:10:47.731Z,102090.41
2022-10-19T05:13:15.877Z,102098.94
2022-10-19T05:15:43.826Z,102116.53
2022-10-19T05:18:11.727Z,102116.69
2022-10-19T05:20:41.015Z,102115.66
2022-10-19T05:23:08.964Z,102122.75
2022-10-19T05:25:36.844Z,102122.69
2022-10-19T05:28:04.780Z,102120.16
2022-10-19T05:30:33.045Z,102110.41
2022-10-19T05:33:01.042Z,102109.34
2022-10-19T05:35:28.914Z,102119.78
2022-10-19T05:37:58.246Z,102112.69
2022-10-19T05:40:26.396Z,102111.19
2022-10-19T05:42:54.409Z,102117.13
2022-10-19T05:45:22.286Z,102110.91
2022-10-19T05:47:50.214Z,102087.44
2022-10-19T05:50:18.438Z,102107.28
2022-10-19T05:52:46.297Z,102112.47
2022-10-19T05:55:15.618Z,102117.69
2022-10-19T05:57:43.514Z,102116.03
2022-10-19T06:00:12.910Z,102111.69
2022-10-19T06:02:40.747Z,102121.22
2022-10-19T06:05:09.151Z,102113.22
2022-10-19T06:07:37.176Z,102114.91
2022-10-19T06:10:05.823Z,102114.97
2022-10-19T06:12:35.042Z,102117.63
2022-10-19T06:15:02.995Z,102121.09
2022-10-19T06:17:30.967Z,102112.88
2022-10-19T06:19:58.994Z,102123.50
2022-10-19T06:22:26.858Z,102124.28
2022-10-19T06:24:55.370Z,102120.66
2022-10-19T06:27:23.476Z,102124.41
2022-10-19T06:29:52.838Z,102125.22
2022-10-19T06:32:20.968Z,102126.84
2022-10-19T06:34:50.832Z,102128.69
2022-10-19T06:37:20.995Z,102125.97
2022-10-19T06:39:48.908Z,102137.38
2022-10-19T06:42:16.880Z,102141.81
2022-10-19T06:44:45.691Z,102148.94
2022-10-19T06:47:15.030Z,102150.44
2022-10-19T06:49:43.020Z,102152.56
2022-10-19T06:52:10.937Z,102154.09
2022-10-19T06:54:38.929Z,102162.84
2022-10-19T06:57:08.018Z,102162.75
2022-10-19T06:59:35.980Z,102162.63
2022-10-19T07:02:06.998Z,102159.72
2022-10-19T07:04:36.334Z,102158.91
2022-10-19T07:07:04.503Z,102157.66
2022-10-19T07:09:32.476Z,102157.50
2022-10-19T07:12:00.448Z,102147.78
2022-10-19T07:14:28.554Z,102162.81
2022-10-19T07:16:56.701Z,102165.47
2022-10-19T07:19:27.298Z,102166.88
2022-10-19T07:21:56.634Z,102160.72
2022-10-19T07:24:24.865Z,102163.31
2022-10-19T07:26:52.803Z,102171.69
2022-10-19T07:29:20.768Z,102179.44
2022-10-19T07:31:48.942Z,102168.56
2022-10-19T07:34:17.170Z,102169.75
2022-10-19T07:36:48.067Z,102172.38
2022-10-19T07:39:18.086Z,102176.78
2022-10-19T07:41:46.430Z,102176.59
2022-10-19T07:44:16.049Z,102181.06
2022-10-19T07:46:44.425Z,102189.13
2022-10-19T07:49:18.865Z,102185.72
2022-10-19T07:51:47.459Z,102187.47
2022-10-19T07:54:16.732Z,102194.66
2022-10-19T07:56:45.033Z,102190.25
2022-10-19T07:59:14.776Z,102189.38
2022-10-19T08:01:43.873Z,102192.94
2022-10-19T08:06:59.723Z,102201.59
2022-10-19T08:12:17.039Z,102205.34
2022-10-19T08:14:44.949Z,102203.50
2022-10-19T08:17:16.644Z,102201.00
2022-10-19T08:19:44.895Z,102204.09
2022-10-19T08:22:13.119Z,102204.97
2022-10-19T08:24:42.497Z,102207.88
2022-10-19T08:27:10.447Z,102208.47
2022-10-19T08:29:38.427Z,102206.63
2022-10-19T08:32:06.691Z,102201.00
2022-10-19T08:34:34.660Z,102201.69
2022-10-19T08:37:10.173Z,102192.53
2022-10-19T08:39:49.526Z,102195.38
2022-10-19T08:42:20.996Z,102188.88
2022-10-19T08:45:22.251Z,102194.78
2022-10-19T08:48:02.997Z,102200.03
2022-10-19T08:50:38.799Z,102189.00
2022-10-19T08:53:11.794Z,102188.41
2022-10-19T08:55:58.657Z,102187.47
2022-10-19T08:58:50.926Z,102185.31
2022-10-19T09:01:33.833Z,102190.44
2022-10-19T09:04:11.255Z,102188.13
2022-10-19T09:06:49.702Z,102179.22
2022-10-19T09:09:20.541Z,102179.94
2022-10-19T09:11:52.654Z,102175.16
2022-10-19T09:14:26.861Z,102180.84
2022-10-19T09:16:59.560Z,102191.06
2022-10-19T09:19:31.885Z,102191.72
2022-10-19T09:22:04.339Z,102191.22
2022-10-19T09:24:41.241Z,102185.31
2022-10-19T09:27:19.851Z,102181.94
2022-10-19T09:29:55.298Z,102181.19
2022-10-19T09:32:26.698Z,102183.97
2022-10-19T09:35:01.239Z,102186.25
2022-10-19T09:40:03.297Z,102187.09
2022-10-19T09:42:36.752Z,102183.03
2022-10-19T09:45:17.485Z,102181.28
2022-10-19T09:47:49.568Z,102189.31
2022-10-19T09:50:21.099Z,102188.09
2022-10-19T09:52:50.331Z,102185.31
2022-10-19T09:55:27.787Z,102189.16
2022-10-19T09:58:17.070Z,102188.81
2022-10-19T10:00:46.985Z,102195.59
2022-10-19T10:03:27.625Z,102191.78
2022-10-19T10:05:57.757Z,102186.31
2022-10-19T10:08:35.764Z,102193.63
2022-10-19T10:11:11.431Z,102193.59
2022-10-19T10:13:43.262Z,102202.50
2022-10-19T10:16:15.167Z,102197.38
2022-10-19T10:21:48.994Z,102203.81
2022-10-19T10:24:21.424Z,102202.75
2022-10-19T10:26:51.461Z,102193.91
2022-10-19T10:29:23.204Z,102199.19
2022-10-19T10:31:54.406Z,102194.81
2022-10-19T10:34:50.215Z,102184.94
2022-10-19T10:37:23.226Z,102189.84
2022-10-19T10:39:53.746Z,102192.44
2022-10-19T10:42:28.411Z,102196.09
2022-10-19T10:44:58.474Z,102200.47
2022-10-19T10:47:27.480Z,102195.44
2022-10-19T10:49:59.079Z,102201.28
2022-10-19T10:52:31.155Z,102183.19
2022-10-19T10:55:02.079Z,102187.75
2022-10-19T10:57:34.376Z,102192.91
2022-10-19T11:00:11.253Z,102186.28
2022-10-19T11:02:48.055Z,102175.03
2022-10-19T11:05:20.638Z,102171.78
2022-10-19T11:07:54.476Z,102175.59
2022-10-19T11:10:27.632Z,102179.34
2022-10-19T11:13:06.385Z,102163.84
2022-10-19T11:15:40.442Z,102163.81
2022-10-19T11:18:19.783Z,102164.09
2022-10-19T11:20:52.330Z,102158.25
2022-10-19T11:23:28.041Z,102153.97
2022-10-19T11:26:07.625Z,102145.97
2022-10-19T11:28:53.155Z,102132.59
2022-10-19T11:31:33.904Z,102122.50
2022-10-19T11:34:11.790Z,102127.69
2022-10-19T11:36:51.157Z,102131.72
2022-10-19T11:39:28.142Z,102123.09
2022-10-19T11:42:15.351Z,102124.06
2022-10-19T11:44:59.888Z,102114.13
2022-10-19T11:47:50.674Z,102110.91
2022-10-19T11:50:32.094Z,102112.91
2022-10-19T11:53:10.611Z,102105.56
2022-10-19T11:55:45.043Z,102109.47
2022-10-19T11:58:34.680Z,102108.28
2022-10-19T12:01:13.569Z,102101.84
2022-10-19T12:04:02.477Z,102100.09
2022-10-19T12:06:36.475Z,102097.16
2022-10-19T12:09:27.322Z,102082.38
2022-10-19T12:12:07.267Z,102094.69
2022-10-19T12:14:42.066Z,102095.31
2022-10-19T12:17:19.585Z,102072.84
2022-10-19T12:19:52.925Z,102097.25
2022-10-19T12:22:25.334Z,102087.78
2022-10-19T12:24:56.353Z,102085.97
2022-10-19T12:27:30.925Z,102092.09
2022-10-19T12:30:04.368Z,102084.69
2022-10-19T12:32:40.864Z,102079.94
2022-10-19T12:35:24.804Z,102083.06
2022-10-19T12:37:58.478Z,102081.75
2022-10-19T12:40:33.071Z,102075.09
2022-10-19T12:43:04.552Z,102074.78
2022-10-19T12:45:40.501Z,102064.22
2022-10-19T12:48:20.578Z,102071.59
2022-10-19T12:51:15.152Z,102061.19
2022-10-19T12:53:47.756Z,102070.47
2022-10-19T12:56:24.054Z,102071.13
2022-10-19T12:58:59.713Z,102067.03
2022-10-19T13:01:29.931Z,102055.56
2022-10-19T13:04:10.786Z,102058.47
2022-10-19T13:06:44.471Z,102060.31
2022-10-19T13:09:25.271Z,102051.91
2022-10-19T13:12:29.056Z,102053.94
2022-10-19T13:14:59.030Z,102047.16
2022-10-19T13:17:43.806Z,102039.25
2022-10-19T13:20:52.688Z,102049.16
2022-10-19T13:23:42.865Z,102038.25
2022-10-19T13:26:33.161Z,102033.53
2022-10-19T13:29:01.694Z,102034.69
2022-10-19T13:31:31.784Z,102036.13
2022-10-19T13:34:00.198Z,102028.34
2022-10-19T13:36:28.578Z,102027.31
2022-10-19T13:39:17.052Z,102022.88
2022-10-19T13:41:54.513Z,102024.66
2022-10-19T13:44:33.807Z,102013.63
2022-10-19T13:50:16.791Z,102011.66
2022-10-19T13:53:08.979Z,102013.47
2022-10-19T13:56:02.830Z,102007.25
2022-10-19T13:59:07.433Z,102012.09
2022-10-19T14:01:49.410Z,102020.19
2022-10-19T14:04:35.891Z,102021.03
2022-10-19T14:07:11.582Z,102024.72
2022-10-19T14:10:01.363Z,102021.91
2022-10-19T14:12:34.802Z,102018.09
2022-10-19T14:15:15.196Z,102010.25
2022-10-19T14:17:43.499Z,102000.41
2022-10-19T14:20:27.028Z,102006.63
2022-10-19T14:22:55.093Z,101996.16
2022-10-19T14:25:24.759Z,102002.56
2022-10-19T14:28:02.551Z,102003.81
2022-10-19T14:30:32.922Z,101989.72
2022-10-19T14:33:14.371Z,101995.28
2022-10-19T14:35:44.936Z,101984.81
2022-10-19T14:38:21.328Z,101984.75
2022-10-19T14:40:49.439Z,101986.56
2022-10-19T14:43:27.353Z,101988.84
2022-10-19T14:46:15.200Z,101984.72
2022-10-19T14:48:45.430Z,101983.91
2022-10-19T14:51:29.250Z,101984.13
2022-10-19T14:54:02.108Z,101985.00
2022-10-19T14:56:34.776Z,101974.81
2022-10-19T14:59:08.165Z,101973.72
2022-10-19T15:01:36.398Z,101984.50
2022-10-19T15:04:05.214Z,101971.09
2022-10-19T15:06:35.704Z,101971.50
2022-10-19T15:09:12.080Z,101982.91
2022-10-19T15:11:49.842Z,101971.75
2022-10-19T15:14:23.356Z,101971.94
2022-10-19T15:16:54.504Z,101959.75
2022-10-19T15:19:29.722Z,101967.81
2022-10-19T15:22:18.383Z,101975.09
2022-10-19T15:24:58.581Z,101966.34
2022-10-19T15:27:32.704Z,101965.66
2022-10-19T15:30:05.054Z,101963.97
2022-10-19T15:32:36.491Z,101965.78
2022-10-19T15:35:12.937Z,101954.47
2022-10-19T15:37:44.101Z,101957.56
2022-10-19T15:40:14.503Z,101956.34
2022-10-19T15:42:44.494Z,101962.69
2022-10-19T15:45:33.740Z,101931.34
2022-10-19T15:48:28.295Z,101945.03
2022-10-19T15:50:57.619Z,101945.38
2022-10-19T15:53:28.334Z,101943.03
2022-10-19T15:55:56.552Z,101945.19
2022-10-19T15:58:25.222Z,101936.63
2022-10-19T16:00:54.536Z,101943.81
2022-10-19T16:03:23.118Z,101935.16
2022-10-19T16:05:51.080Z,101941.50
2022-10-19T16:08:19.076Z,101942.47
2022-10-19T16:10:47.057Z,101930.34
2022-10-19T16:13:14.965Z,101932.25
2022-10-19T16:15:49.950Z,101928.84
2022-10-19T16:18:26.038Z,101930.81
2022-10-19T16:20:54.009Z,101930.09
2022-10-19T16:23:22.017Z,101928.56
2022-10-19T16:25:49.995Z,101931.25
2022-10-19T16:28:18.162Z,101935.03
2022-10-19T16:30:46.237Z,101921.13
2022-10-19T16:33:14.239Z,101937.03
2022-10-19T16:35:43.579Z,101928.44
2022-10-19T16:38:11.769Z,101934.00
2022-10-19T16:40:39.783Z,101934.88
2022-10-19T16:43:08.507Z,101932.31
2022-10-19T16:45:36.572Z,101937.03
2022-10-19T16:48:04.672Z,101927.44
2022-10-19T16:50:32.676Z,101919.59
2022-10-19T16:53:07.160Z,101927.63
2022-10-19T16:55:35.172Z,101928.53
2022-10-19T16:58:03.195Z,101925.22
2022-10-19T17:00:31.153Z,101935.03
2022-10-19T17:02:59.144Z,101923.81
2022-10-19T17:05:27.042Z,101933.63
2022-10-19T17:07:55.059Z,101915.34
2022-10-19T17:10:24.399Z,101938.28
2022-10-19T17:12:52.423Z,101941.84
2022-10-19T17:18:08.612Z,101942.09
2022-10-19T17:20:36.655Z,101947.59
2022-10-19T17:23:04.595Z,101944.13
2022-10-19T17:25:34.004Z,101944.25
2022-10-19T17:28:01.934Z,101946.09
2022-10-19T17:30:29.891Z,101928.41
2022-10-19T17:32:57.941Z,101938.16
2022-10-19T17:35:25.932Z,101942.53
2022-10-19T17:37:53.929Z,101947.03
2022-10-19T17:40:21.890Z,101936.41
2022-10-19T17:42:51.215Z,101937.41
2022-10-19T17:45:19.235Z,101939.19
2022-10-19T17:47:47.171Z,101933.13
2022-10-19T17:50:15.189Z,101936.69
2022-10-19T17:52:43.108Z,101947.31
2022-10-19T17:55:13.063Z,101935.03
2022-10-19T17:57:41.662Z,101935.03
2022-10-19T18:00:11.988Z,101938.72
2022-10-19T18:02:45.598Z,101941.25
2022-10-19T18:05:13.643Z,101943.00
2022-10-19T18:07:44.220Z,101936.13
2022-10-19T18:10:12.287Z,101948.56
2022-10-19T18:12:40.450Z,101950.31
2022-10-19T18:15:09.427Z,101940.59
2022-10-19T18:17:39.164Z,101950.41
2022-10-19T18:20:08.778Z,101937.34
2022-10-19T18:22:36.796Z,101942.66
2022-10-19T18:25:05.283Z,101944.47
2022-10-19T18:27:33.852Z,101937.25
2022-10-19T18:30:06.558Z,101941.72
2022-10-19T18:32:39.036Z,101940.75
2022-10-19T18:35:08.869Z,101937.19
2022-10-19T18:37:36.931Z,101941.59
2022-10-19T18:40:05.460Z,101935.41
2022-10-19T18:42:33.736Z,101932.84
2022-10-19T18:45:03.254Z,101928.47
2022-10-19T18:47:32.024Z,101941.63
2022-10-19T18:50:01.414Z,101938.97
2022-10-19T18:52:29.821Z,101932.88
2022-10-19T18:54:57.765Z,101927.66
2022-10-19T18:57:30.817Z,101916.16
2022-10-19T18:59:59.769Z,101918.84
2022-10-19T19:02:34.733Z,101916.28
2022-10-19T19:05:04.964Z,101902.13
2022-10-19T19:07:33.014Z,101904.00
2022-10-19T19:10:00.948Z,101908.34
2022-10-19T19:12:31.022Z,101898.72
2022-10-19T19:14:59.008Z,101890.00
2022-10-19T19:17:27.022Z,101884.69
2022-10-19T19:19:55.017Z,101877.69
2022-10-19T19:22:26.091Z,101868.81
2022-10-19T19:24:54.274Z,101863.44
2022-10-19T19:27:27.203Z,101854.81
2022-10-19T19:30:00.554Z,101856.56
2022-10-19T19:32:28.601Z,101848.72
2022-10-19T19:34:56.553Z,101837.47
2022-10-19T19:37:25.922Z,101854.16
2022-10-19T19:39:53.814Z,101847.06
2022-10-19T19:42:25.681Z,101847.97
2022-10-19T19:44:55.838Z,101854.06
2022-10-19T19:47:23.858Z,101850.53
2022-10-19T19:49:51.820Z,101847.97
2022-10-19T19:52:19.785Z,101852.38
2022-10-19T19:54:49.220Z,101829.53
2022-10-19T19:57:17.933Z,101847.06
2022-10-19T19:59:45.996Z,101827.88
2022-10-19T20:02:17.816Z,101841.00
2022-10-19T20:04:45.835Z,101847.97
2022-10-19T20:07:13.846Z,101856.91
2022-10-19T20:09:41.801Z,101856.03
2022-10-19T20:12:13.644Z,101855.25
2022-10-19T20:14:41.663Z,101847.31
2022-10-19T20:17:09.611Z,101845.63
2022-10-19T20:19:37.792Z,101836.78
2022-10-19T20:22:06.256Z,101843.03
2022-10-19T20:24:37.658Z,101832.63
2022-10-19T20:27:05.874Z,101840.56
2022-10-19T20:29:35.267Z,101840.59
2022-10-19T20:32:03.179Z,101843.22
2022-10-19T20:34:31.153Z,101838.81
2022-10-19T20:36:59.090Z,101843.22
2022-10-19T20:39:27.067Z,101839.78
2022-10-19T20:41:55.123Z,101838.16
2022-10-19T20:44:23.089Z,101830.19
2022-10-19T20:46:52.327Z,101834.63
2022-10-19T20:49:20.231Z,101830.19
2022-10-19T20:51:48.591Z,101826.75
2022-10-19T20:54:16.483Z,101818.75
2022-10-19T20:56:44.445Z,101817.03
2022-10-19T20:59:14.411Z,101817.78
2022-10-19T21:01:43.475Z,101817.69
2022-10-19T21:04:15.101Z,101819.53
2022-10-19T21:06:44.446Z,101825.66
2022-10-19T21:09:14.324Z,101820.47
2022-10-19T21:11:43.572Z,101833.50
2022-10-19T21:14:14.556Z,101835.28
2022-10-19T21:16:42.850Z,101813.28
2022-10-19T21:19:15.149Z,101829.22
2022-10-19T21:21:45.040Z,101831.81
2022-10-19T21:24:15.071Z,101836.28
2022-10-19T21:26:43.452Z,101823.06
2022-10-19T21:29:12.606Z,101821.47
2022-10-19T21:31:45.120Z,101802.97
2022-10-19T21:34:19.665Z,101820.63
2022-10-19T21:36:47.986Z,101824.22
2022-10-19T21:39:16.628Z,101822.41
2022-10-19T21:41:44.613Z,101818.03
2022-10-19T21:44:12.704Z,101813.69
2022-10-19T21:46:40.773Z,101794.38
2022-10-19T21:49:08.724Z,101794.38
2022-10-19T21:51:42.568Z,101796.19
2022-10-19T21:54:13.836Z,101799.81
2022-10-19T21:56:41.813Z,101783.94
2022-10-19T21:59:09.713Z,101785.69
2022-10-19T22:01:40.357Z,101796.38
2022-10-19T22:04:13.098Z,101783.13
2022-10-19T22:06:43.023Z,101774.53
2022-10-19T22:09:14.986Z,101774.56
2022-10-19T22:11:43.348Z,101768.31
2022-10-19T22:14:12.506Z,101762.22
2022-10-19T22:16:41.168Z,101752.50
2022-10-19T22:19:10.026Z,101752.50
2022-10-19T22:24:14.999Z,101746.47
2022-10-19T22:26:50.778Z,101738.59
2022-10-19T22:29:18.904Z,101737.00
2022-10-19T22:31:46.908Z,101733.47
2022-10-19T22:34:17.438Z,101719.44
2022-10-19T22:36:45.837Z,101738.69
2022-10-19T22:39:15.769Z,101715.03
2022-10-19T22:41:43.789Z,101728.28
2022-10-19T22:44:11.717Z,101727.41
2022-10-19T22:46:39.682Z,101717.75
2022-10-19T22:51:37.023Z,101718.59
2022-10-19T22:54:05.749Z,101701.91
2022-10-19T22:56:35.032Z,101705.44
2022-10-19T22:59:04.834Z,101715.03
2022-10-19T23:01:33.419Z,101704.41
2022-10-19T23:04:01.409Z,101707.97
2022-10-19T23:06:29.313Z,101712.38
2022-10-19T23:08:57.366Z,101713.97
2022-10-19T23:11:25.416Z,101703.53
2022-10-19T23:13:54.753Z,101724.63
2022-10-19T23:16:22.733Z,101714.84
2022-10-19T23:18:50.667Z,101719.34
2022-10-19T23:21:18.614Z,101717.69
2022-10-19T23:23:46.604Z,101719.38
2022-10-19T23:26:17.547Z,101720.22
2022-10-19T23:28:47.383Z,101712.38
2022-10-19T23:31:18.365Z,101710.63
2022-10-19T23:33:46.397Z,101720.41
2022-10-19T23:36:16.429Z,101711.56
2022-10-19T23:38:45.376Z,101706.41
2022-10-19T23:41:14.421Z,101709.13
2022-10-19T23:43:43.571Z,101716.34
2022-10-19T23:46:11.799Z,101702.31
2022-10-19T23:48:41.923Z,101700.66
2022-10-19T23:51:13.184Z,101706.00
2022-10-19T23:53:42.982Z,101706.03
2022-10-19T23:56:12.977Z,101691.13
2022-10-19T23:58:40.977Z,101678.00
